CheckWX is a tool to help pilots better visualize weather data.  It is not intended as a substitute for an official pre-flight weather briefing.

18:33:21 UTC

KCKB METAR
North Central West Virginia Airport
Clarksburg, West Virginia, USA
Current

40 mins ago

KCKB 221753Z 33005KT 10SM CLR 07/M02 A3037 RMK AO2 SLP284 T00671022 10067 20022 58003
Observed
Feb-22 @ 17:53 UTC
Wind
  • 330° at 5 KTS
Visibility
10 SM
Flight Rules
VFR
Cloud Levels
  • Clear skies
Temperature
C / 45°F
Dewpoint
-2°C / 28°F
Humidity
53%
Altimeter
30.37" Hg
Pressure
1028.4 hPa
Previous

2 hours ago

KCKB 221653Z 03003KT 10SM CLR 06/M02 A3038 RMK AO2 SLP288 T00611022
Observed
Feb-22 @ 16:53 UTC
Wind
  • 030° at 3 KTS
Visibility
10 SM
Flight Rules
VFR
Cloud Levels
  • Clear skies
Temperature
C / 43°F
Dewpoint
-2°C / 28°F
Humidity
57%
Altimeter
30.38" Hg
Pressure
1028.8 hPa
Previous

3 hours ago

KCKB 221553Z 02004KT 10SM CLR 05/M03 A3038 RMK AO2 SLP288 T00501028
Observed
Feb-22 @ 15:53 UTC
Wind
  • 020° at 4 KTS
Visibility
10 SM
Flight Rules
VFR
Cloud Levels
  • Clear skies
Temperature
C / 41°F
Dewpoint
-3°C / 27°F
Humidity
57%
Altimeter
30.38" Hg
Pressure
1028.8 hPa